sensor_id;sensor_type;location;lat;lon;timestamp;pressure;altitude;pressure_sealevel;temperature;humidity
72636;BME280;60679;48.888;15.544;2023-01-19T00:00:41;94800.44;;;-1.28;74.05
72636;BME280;60679;48.888;15.544;2023-01-19T00:03:07;94804.31;;;-1.24;74.10
72636;BME280;60679;48.888;15.544;2023-01-19T00:05:41;94796.22;;;-1.22;74.04
72636;BME280;60679;48.888;15.544;2023-01-19T00:08:08;94812.72;;;-1.20;73.96
72636;BME280;60679;48.888;15.544;2023-01-19T00:10:41;94820.66;;;-1.20;74.14
72636;BME280;60679;48.888;15.544;2023-01-19T00:13:07;94816.34;;;-1.21;73.99
72636;BME280;60679;48.888;15.544;2023-01-19T00:15:32;94814.53;;;-1.21;74.02
72636;BME280;60679;48.888;15.544;2023-01-19T00:17:58;94815.94;;;-1.25;74.02
72636;BME280;60679;48.888;15.544;2023-01-19T00:20:23;94816.47;;;-1.29;74.26
72636;BME280;60679;48.888;15.544;2023-01-19T00:22:48;94821.53;;;-1.34;74.08
72636;BME280;60679;48.888;15.544;2023-01-19T00:25:15;94818.41;;;-1.38;74.24
72636;BME280;60679;48.888;15.544;2023-01-19T00:27:41;94818.78;;;-1.41;74.24
72636;BME280;60679;48.888;15.544;2023-01-19T00:30:16;94813.06;;;-1.44;74.21
72636;BME280;60679;48.888;15.544;2023-01-19T00:32:41;94808.97;;;-1.47;74.29
72636;BME280;60679;48.888;15.544;2023-01-19T00:35:07;94804.84;;;-1.49;74.15
72636;BME280;60679;48.888;15.544;2023-01-19T00:37:32;94807.50;;;-1.49;74.26
72636;BME280;60679;48.888;15.544;2023-01-19T00:39:58;94802.19;;;-1.49;74.35
72636;BME280;60679;48.888;15.544;2023-01-19T00:42:23;94804.84;;;-1.49;74.37
72636;BME280;60679;48.888;15.544;2023-01-19T00:45:18;94810.13;;;-1.49;74.24
72636;BME280;60679;48.888;15.544;2023-01-19T00:47:44;94811.16;;;-1.50;74.13
72636;BME280;60679;48.888;15.544;2023-01-19T00:50:15;94818.44;;;-1.52;74.31
72636;BME280;60679;48.888;15.544;2023-01-19T00:52:43;94811.69;;;-1.55;74.19
72636;BME280;60679;48.888;15.544;2023-01-19T00:55:11;94809.88;;;-1.54;74.37
72636;BME280;60679;48.888;15.544;2023-01-19T00:57:37;94813.34;;;-1.54;74.37
72636;BME280;60679;48.888;15.544;2023-01-19T01:00:05;94813.72;;;-1.57;74.39
72636;BME280;60679;48.888;15.544;2023-01-19T01:02:31;94823.84;;;-1.60;74.28
72636;BME280;60679;48.888;15.544;2023-01-19T01:04:57;94823.06;;;-1.61;74.45
72636;BME280;60679;48.888;15.544;2023-01-19T01:07:23;94829.97;;;-1.60;74.32
72636;BME280;60679;48.888;15.544;2023-01-19T01:09:49;94827.53;;;-1.61;74.32
72636;BME280;60679;48.888;15.544;2023-01-19T01:12:15;94825.50;;;-1.59;74.37
72636;BME280;60679;48.888;15.544;2023-01-19T01:14:41;94825.50;;;-1.59;74.44
72636;BME280;60679;48.888;15.544;2023-01-19T01:17:06;94824.50;;;-1.58;74.33
72636;BME280;60679;48.888;15.544;2023-01-19T01:19:36;94822.84;;;-1.59;74.41
72636;BME280;60679;48.888;15.544;2023-01-19T01:22:02;94820.22;;;-1.59;74.50
72636;BME280;60679;48.888;15.544;2023-01-19T01:24:27;94814.72;;;-1.58;74.40
72636;BME280;60679;48.888;15.544;2023-01-19T01:26:52;94809.63;;;-1.59;74.30
72636;BME280;60679;48.888;15.544;2023-01-19T01:29:18;94798.78;;;-1.64;74.43
72636;BME280;60679;48.888;15.544;2023-01-19T01:31:43;94796.69;;;-1.69;74.43
72636;BME280;60679;48.888;15.544;2023-01-19T01:34:08;94787.50;;;-1.73;74.50
72636;BME280;60679;48.888;15.544;2023-01-19T01:36:34;94792.16;;;-1.75;74.29
72636;BME280;60679;48.888;15.544;2023-01-19T01:39:00;94794.97;;;-1.77;74.42
72636;BME280;60679;48.888;15.544;2023-01-19T01:41:26;94797.63;;;-1.77;74.48
72636;BME280;60679;48.888;15.544;2023-01-19T01:43:55;94793.31;;;-1.78;74.57
72636;BME280;60679;48.888;15.544;2023-01-19T01:46:28;94795.34;;;-1.80;74.59
72636;BME280;60679;48.888;15.544;2023-01-19T01:49:04;94792.69;;;-1.80;74.56
72636;BME280;60679;48.888;15.544;2023-01-19T01:51:39;94787.22;;;-1.78;74.64
72636;BME280;60679;48.888;15.544;2023-01-19T01:54:16;94780.28;;;-1.79;74.64
72636;BME280;60679;48.888;15.544;2023-01-19T01:56:50;94788.22;;;-1.79;74.66
72636;BME280;60679;48.888;15.544;2023-01-19T01:59:26;94792.69;;;-1.80;74.58
72636;BME280;60679;48.888;15.544;2023-01-19T02:02:01;94787.22;;;-1.78;74.62
72636;BME280;60679;48.888;15.544;2023-01-19T02:04:49;94785.38;;;-1.78;74.65
72636;BME280;60679;48.888;15.544;2023-01-19T02:07:22;94784.38;;;-1.77;74.60
72636;BME280;60679;48.888;15.544;2023-01-19T02:10:10;94787.03;;;-1.77;74.65
72636;BME280;60679;48.888;15.544;2023-01-19T02:12:54;94782.72;;;-1.78;74.58
72636;BME280;60679;48.888;15.544;2023-01-19T02:15:38;94783.41;;;-1.76;74.35
72636;BME280;60679;48.888;15.544;2023-01-19T02:18:04;94786.28;;;-1.70;74.70
72636;BME280;60679;48.888;15.544;2023-01-19T02:20:30;94780.06;;;-1.63;74.85
72636;BME280;60679;48.888;15.544;2023-01-19T02:23:02;94789.28;;;-1.59;74.78
72636;BME280;60679;48.888;15.544;2023-01-19T02:25:31;94786.28;;;-1.56;74.73
72636;BME280;60679;48.888;15.544;2023-01-19T02:27:57;94796.47;;;-1.53;74.66
72636;BME280;60679;48.888;15.544;2023-01-19T02:30:22;94797.47;;;-1.54;74.75
72636;BME280;60679;48.888;15.544;2023-01-19T02:32:48;94796.84;;;-1.56;74.60
72636;BME280;60679;48.888;15.544;2023-01-19T02:35:14;94802.78;;;-1.54;74.73
72636;BME280;60679;48.888;15.544;2023-01-19T02:37:41;94800.94;;;-1.53;74.46
72636;BME280;60679;48.888;15.544;2023-01-19T02:40:10;94807.06;;;-1.53;74.75
72636;BME280;60679;48.888;15.544;2023-01-19T02:42:41;94815.19;;;-1.54;74.80
72636;BME280;60679;48.888;15.544;2023-01-19T02:45:08;94812.72;;;-1.56;74.83
72636;BME280;60679;48.888;15.544;2023-01-19T02:47:44;94825.50;;;-1.59;74.80
72636;BME280;60679;48.888;15.544;2023-01-19T02:53:16;94839.28;;;-1.64;74.75
72636;BME280;60679;48.888;15.544;2023-01-19T02:56:05;94843.56;;;-1.63;74.84
72636;BME280;60679;48.888;15.544;2023-01-19T02:58:46;94834.25;;;-1.59;74.87
72636;BME280;60679;48.888;15.544;2023-01-19T03:01:45;94831.78;;;-1.60;74.73
72636;BME280;60679;48.888;15.544;2023-01-19T03:07:29;94837.03;;;-1.67;74.95
72636;BME280;60679;48.888;15.544;2023-01-19T03:12:53;94833.56;;;-1.82;74.97
72636;BME280;60679;48.888;15.544;2023-01-19T03:15:27;94828.63;;;-1.85;75.04
72636;BME280;60679;48.888;15.544;2023-01-19T03:17:56;94825.97;;;-1.85;75.08
72636;BME280;60679;48.888;15.544;2023-01-19T03:20:25;94827.19;;;-1.88;75.06
72636;BME280;60679;48.888;15.544;2023-01-19T03:22:59;94826.34;;;-1.88;75.05
72636;BME280;60679;48.888;15.544;2023-01-19T03:25:27;94828.16;;;-1.89;74.98
72636;BME280;60679;48.888;15.544;2023-01-19T03:27:56;94844.41;;;-1.92;75.02
72636;BME280;60679;48.888;15.544;2023-01-19T03:30:25;94847.03;;;-1.92;75.28
72636;BME280;60679;48.888;15.544;2023-01-19T03:32:55;94842.41;;;-1.90;75.12
72636;BME280;60679;48.888;15.544;2023-01-19T03:35:24;94852.44;;;-1.85;75.20
72636;BME280;60679;48.888;15.544;2023-01-19T03:37:54;94861.81;;;-1.83;75.04
72636;BME280;60679;48.888;15.544;2023-01-19T03:40:24;94856.06;;;-1.86;75.15
72636;BME280;60679;48.888;15.544;2023-01-19T03:42:51;94855.63;;;-1.90;75.07
72636;BME280;60679;48.888;15.544;2023-01-19T03:45:17;94862.13;;;-1.92;75.02
72636;BME280;60679;48.888;15.544;2023-01-19T03:47:43;94845.44;;;-1.93;75.30
72636;BME280;60679;48.888;15.544;2023-01-19T03:50:13;94840.59;;;-1.89;75.33
72636;BME280;60679;48.888;15.544;2023-01-19T03:52:42;94845.50;;;-1.86;75.15
72636;BME280;60679;48.888;15.544;2023-01-19T03:55:08;94842.69;;;-1.85;75.26
72636;BME280;60679;48.888;15.544;2023-01-19T03:57:34;94844.34;;;-1.84;75.11
72636;BME280;60679;48.888;15.544;2023-01-19T04:00:00;94841.28;;;-1.81;75.12
72636;BME280;60679;48.888;15.544;2023-01-19T04:02:25;94848.97;;;-1.71;75.33
72636;BME280;60679;48.888;15.544;2023-01-19T04:04:51;94848.94;;;-1.56;75.26
72636;BME280;60679;48.888;15.544;2023-01-19T04:07:16;94858.50;;;-1.41;74.92
72636;BME280;60679;48.888;15.544;2023-01-19T04:09:41;94871.34;;;-1.23;75.22
72636;BME280;60679;48.888;15.544;2023-01-19T04:12:07;94896.50;;;-1.12;75.06
72636;BME280;60679;48.888;15.544;2023-01-19T04:14:33;94902.72;;;-1.05;75.18
72636;BME280;60679;48.888;15.544;2023-01-19T04:16:58;94905.81;;;-1.02;75.03
72636;BME280;60679;48.888;15.544;2023-01-19T04:19:24;94910.28;;;-1.02;74.99
72636;BME280;60679;48.888;15.544;2023-01-19T04:21:49;94917.31;;;-1.09;75.07
72636;BME280;60679;48.888;15.544;2023-01-19T04:24:15;94911.97;;;-1.16;75.23
72636;BME280;60679;48.888;15.544;2023-01-19T04:26:41;94915.34;;;-1.22;75.11
72636;BME280;60679;48.888;15.544;2023-01-19T04:29:07;94920.38;;;-1.27;75.12
72636;BME280;60679;48.888;15.544;2023-01-19T04:31:32;94908.97;;;-1.28;75.17
72636;BME280;60679;48.888;15.544;2023-01-19T04:34:00;94922.38;;;-1.29;75.22
72636;BME280;60679;48.888;15.544;2023-01-19T04:36:25;94930.88;;;-1.34;75.17
72636;BME280;60679;48.888;15.544;2023-01-19T04:38:51;94927.59;;;-1.36;75.37
72636;BME280;60679;48.888;15.544;2023-01-19T04:41:17;94945.09;;;-1.35;75.34
72636;BME280;60679;48.888;15.544;2023-01-19T04:43:42;94952.69;;;-1.32;75.23
72636;BME280;60679;48.888;15.544;2023-01-19T04:46:08;94959.06;;;-1.26;75.36
72636;BME280;60679;48.888;15.544;2023-01-19T04:48:33;94961.97;;;-1.21;75.30
72636;BME280;60679;48.888;15.544;2023-01-19T04:50:58;94969.56;;;-1.18;75.36
72636;BME280;60679;48.888;15.544;2023-01-19T04:53:24;94963.91;;;-1.15;75.29
72636;BME280;60679;48.888;15.544;2023-01-19T04:55:53;94963.53;;;-1.12;75.20
72636;BME280;60679;48.888;15.544;2023-01-19T04:58:19;94968.28;;;-1.07;75.21
72636;BME280;60679;48.888;15.544;2023-01-19T05:00:47;94963.41;;;-1.04;75.12
72636;BME280;60679;48.888;15.544;2023-01-19T05:03:14;94969.19;;;-1.00;75.30
72636;BME280;60679;48.888;15.544;2023-01-19T05:05:39;94975.09;;;-0.98;75.21
72636;BME280;60679;48.888;15.544;2023-01-19T05:08:04;94976.56;;;-0.96;75.32
72636;BME280;60679;48.888;15.544;2023-01-19T05:10:30;94972.09;;;-0.95;75.29
72636;BME280;60679;48.888;15.544;2023-01-19T05:12:55;94977.22;;;-0.94;75.28
72636;BME280;60679;48.888;15.544;2023-01-19T05:15:21;94975.41;;;-0.93;75.30
72636;BME280;60679;48.888;15.544;2023-01-19T05:17:46;94977.84;;;-0.92;75.39
72636;BME280;60679;48.888;15.544;2023-01-19T05:20:12;94972.19;;;-0.89;75.41
72636;BME280;60679;48.888;15.544;2023-01-19T05:22:38;94972.19;;;-0.89;75.23
72636;BME280;60679;48.888;15.544;2023-01-19T05:25:04;94973.84;;;-0.88;75.44
72636;BME280;60679;48.888;15.544;2023-01-19T05:27:30;94972.63;;;-0.85;75.46
72636;BME280;60679;48.888;15.544;2023-01-19T05:29:55;94968.97;;;-0.84;75.32
72636;BME280;60679;48.888;15.544;2023-01-19T05:32:21;94970.63;;;-0.83;75.44
72636;BME280;60679;48.888;15.544;2023-01-19T05:34:46;94970.41;;;-0.82;75.66
72636;BME280;60679;48.888;15.544;2023-01-19T05:37:11;94967.75;;;-0.82;75.34
72636;BME280;60679;48.888;15.544;2023-01-19T05:39:37;94978.34;;;-0.82;75.39
72636;BME280;60679;48.888;15.544;2023-01-19T05:42:02;94978.00;;;-0.79;75.40
72636;BME280;60679;48.888;15.544;2023-01-19T05:44:28;94983.28;;;-0.79;75.51
72636;BME280;60679;48.888;15.544;2023-01-19T05:46:53;94978.81;;;-0.78;75.48
72636;BME280;60679;48.888;15.544;2023-01-19T05:49:19;94984.75;;;-0.76;75.53
72636;BME280;60679;48.888;15.544;2023-01-19T05:51:44;94986.59;;;-0.77;75.33
72636;BME280;60679;48.888;15.544;2023-01-19T05:54:12;94996.00;;;-0.74;75.50
72636;BME280;60679;48.888;15.544;2023-01-19T05:56:38;95003.56;;;-0.71;75.56
72636;BME280;60679;48.888;15.544;2023-01-19T05:59:04;94998.28;;;-0.71;75.58
72636;BME280;60679;48.888;15.544;2023-01-19T06:01:30;94993.81;;;-0.71;75.60
72636;BME280;60679;48.888;15.544;2023-01-19T06:03:55;94999.72;;;-0.69;75.47
72636;BME280;60679;48.888;15.544;2023-01-19T06:06:20;94997.91;;;-0.68;75.47
72636;BME280;60679;48.888;15.544;2023-01-19T06:08:46;95003.00;;;-0.67;75.51
72636;BME280;60679;48.888;15.544;2023-01-19T06:11:11;95002.19;;;-0.67;75.56
72636;BME280;60679;48.888;15.544;2023-01-19T06:13:37;95007.13;;;-0.64;75.40
72636;BME280;60679;48.888;15.544;2023-01-19T06:16:06;94997.53;;;-0.65;75.39
72636;BME280;60679;48.888;15.544;2023-01-19T06:18:31;95007.94;;;-0.64;75.53
72636;BME280;60679;48.888;15.544;2023-01-19T06:20:57;95008.13;;;-0.65;75.50
72636;BME280;60679;48.888;15.544;2023-01-19T06:23:29;95004.47;;;-0.64;75.61
72636;BME280;60679;48.888;15.544;2023-01-19T06:25:55;95009.97;;;-0.66;75.63
72636;BME280;60679;48.888;15.544;2023-01-19T06:28:26;95011.88;;;-0.60;75.46
72636;BME280;60679;48.888;15.544;2023-01-19T06:30:53;95013.03;;;-0.62;75.52
72636;BME280;60679;48.888;15.544;2023-01-19T06:33:19;95002.63;;;-0.64;75.55
72636;BME280;60679;48.888;15.544;2023-01-19T06:35:46;95006.28;;;-0.65;75.47
72636;BME280;60679;48.888;15.544;2023-01-19T06:38:13;95018.75;;;-0.65;75.54
72636;BME280;60679;48.888;15.544;2023-01-19T06:40:39;95025.03;;;-0.66;75.50
72636;BME280;60679;48.888;15.544;2023-01-19T06:43:05;95038.28;;;-0.66;75.50
72636;BME280;60679;48.888;15.544;2023-01-19T06:45:31;95041.09;;;-0.68;75.48
72636;BME280;60679;48.888;15.544;2023-01-19T06:47:57;95051.72;;;-0.68;75.53
72636;BME280;60679;48.888;15.544;2023-01-19T06:50:22;95060.47;;;-0.67;75.40
72636;BME280;60679;48.888;15.544;2023-01-19T06:52:50;95069.25;;;-0.67;75.45
72636;BME280;60679;48.888;15.544;2023-01-19T06:55:16;95072.91;;;-0.68;75.41
72636;BME280;60679;48.888;15.544;2023-01-19T06:57:42;95069.63;;;-0.70;75.43
72636;BME280;60679;48.888;15.544;2023-01-19T07:00:09;95073.47;;;-0.72;75.47
72636;BME280;60679;48.888;15.544;2023-01-19T07:02:42;95071.19;;;-0.75;75.47
72636;BME280;60679;48.888;15.544;2023-01-19T07:05:09;95056.69;;;-0.79;75.39
72636;BME280;60679;48.888;15.544;2023-01-19T07:07:38;95053.38;;;-0.81;75.46
72636;BME280;60679;48.888;15.544;2023-01-19T07:10:05;95055.38;;;-0.83;75.30
72636;BME280;60679;48.888;15.544;2023-01-19T07:12:32;95054.56;;;-0.84;75.07
72636;BME280;60679;48.888;15.544;2023-01-19T07:14:57;95049.63;;;-0.87;75.31
72636;BME280;60679;48.888;15.544;2023-01-19T07:17:23;95055.97;;;-0.88;75.38
72636;BME280;60679;48.888;15.544;2023-01-19T07:19:48;95051.28;;;-0.86;75.28
72636;BME280;60679;48.888;15.544;2023-01-19T07:22:14;95043.81;;;-0.82;75.19
72636;BME280;60679;48.888;15.544;2023-01-19T07:24:39;95042.41;;;-0.78;74.98
72636;BME280;60679;48.888;15.544;2023-01-19T07:27:05;95046.72;;;-0.77;74.91
72636;BME280;60679;48.888;15.544;2023-01-19T07:29:31;95047.53;;;-0.77;75.01
72636;BME280;60679;48.888;15.544;2023-01-19T07:31:56;95052.47;;;-0.74;74.96
72636;BME280;60679;48.888;15.544;2023-01-19T07:34:22;95056.56;;;-0.71;74.90
72636;BME280;60679;48.888;15.544;2023-01-19T07:36:47;95057.47;;;-0.64;74.79
72636;BME280;60679;48.888;15.544;2023-01-19T07:39:13;95068.16;;;-0.57;74.86
72636;BME280;60679;48.888;15.544;2023-01-19T07:41:38;95070.06;;;-0.51;74.75
72636;BME280;60679;48.888;15.544;2023-01-19T07:44:04;95066.31;;;-0.42;74.71
72636;BME280;60679;48.888;15.544;2023-01-19T07:46:29;95070.47;;;-0.33;74.59
72636;BME280;60679;48.888;15.544;2023-01-19T07:48:55;95071.38;;;-0.26;74.49
72636;BME280;60679;48.888;15.544;2023-01-19T07:51:20;95072.47;;;-0.21;74.36
72636;BME280;60679;48.888;15.544;2023-01-19T07:53:48;95081.88;;;-0.18;74.40
72636;BME280;60679;48.888;15.544;2023-01-19T07:56:14;95081.97;;;-0.12;74.33
72636;BME280;60679;48.888;15.544;2023-01-19T07:58:39;95078.53;;;-0.06;74.38
72636;BME280;60679;48.888;15.544;2023-01-19T08:01:09;95087.59;;;0.00;74.12
72636;BME280;60679;48.888;15.544;2023-01-19T08:03:35;95083.38;;;0.06;74.18
72636;BME280;60679;48.888;15.544;2023-01-19T08:06:01;95086.53;;;0.16;73.90
72636;BME280;60679;48.888;15.544;2023-01-19T08:08:31;95095.44;;;0.29;73.85
72636;BME280;60679;48.888;15.544;2023-01-19T08:10:57;95083.69;;;0.38;73.51
72636;BME280;60679;48.888;15.544;2023-01-19T08:13:22;95093.34;;;0.46;73.46
72636;BME280;60679;48.888;15.544;2023-01-19T08:15:49;95088.91;;;0.53;73.45
72636;BME280;60679;48.888;15.544;2023-01-19T08:18:16;95096.13;;;0.59;73.38
72636;BME280;60679;48.888;15.544;2023-01-19T08:20:41;95092.44;;;0.60;73.37
72636;BME280;60679;48.888;15.544;2023-01-19T08:23:07;95092.66;;;0.58;73.55
72636;BME280;60679;48.888;15.544;2023-01-19T08:25:35;95105.91;;;0.58;73.57
72636;BME280;60679;48.888;15.544;2023-01-19T08:28:02;95108.97;;;0.55;73.42
72636;BME280;60679;48.888;15.544;2023-01-19T08:30:28;95103.88;;;0.61;73.47
72636;BME280;60679;48.888;15.544;2023-01-19T08:32:54;95104.00;;;0.74;73.22
72636;BME280;60679;48.888;15.544;2023-01-19T08:35:29;95098.28;;;0.77;73.09
72636;BME280;60679;48.888;15.544;2023-01-19T08:37:54;95101.59;;;0.79;73.18
72636;BME280;60679;48.888;15.544;2023-01-19T08:40:20;95101.31;;;0.74;73.22
72636;BME280;60679;48.888;15.544;2023-01-19T08:42:45;95097.38;;;0.63;73.38
72636;BME280;60679;48.888;15.544;2023-01-19T08:45:10;95103.66;;;0.55;73.53
72636;BME280;60679;48.888;15.544;2023-01-19T08:47:36;95095.06;;;0.53;73.59
72636;BME280;60679;48.888;15.544;2023-01-19T08:50:01;95097.25;;;0.50;73.62
72636;BME280;60679;48.888;15.544;2023-01-19T08:52:27;95095.53;;;0.42;73.73
72636;BME280;60679;48.888;15.544;2023-01-19T08:54:53;95098.84;;;0.44;73.78
72636;BME280;60679;48.888;15.544;2023-01-19T08:57:19;95088.59;;;0.41;73.43
72636;BME280;60679;48.888;15.544;2023-01-19T08:59:44;95098.72;;;0.52;73.23
72636;BME280;60679;48.888;15.544;2023-01-19T09:02:11;95102.38;;;0.73;72.93
72636;BME280;60679;48.888;15.544;2023-01-19T09:04:37;95105.34;;;0.91;72.38
72636;BME280;60679;48.888;15.544;2023-01-19T09:07:02;95102.22;;;1.08;71.84
72636;BME280;60679;48.888;15.544;2023-01-19T09:09:27;95116.78;;;1.19;71.49
72636;BME280;60679;48.888;15.544;2023-01-19T09:11:53;95112.16;;;1.28;71.65
72636;BME280;60679;48.888;15.544;2023-01-19T09:14:19;95127.53;;;1.32;71.39
72636;BME280;60679;48.888;15.544;2023-01-19T09:16:45;95121.81;;;1.35;71.37
72636;BME280;60679;48.888;15.544;2023-01-19T09:19:11;95129.16;;;1.33;71.54
72636;BME280;60679;48.888;15.544;2023-01-19T09:21:38;95128.75;;;1.36;71.48
72636;BME280;60679;48.888;15.544;2023-01-19T09:24:03;95139.00;;;1.39;71.27
72636;BME280;60679;48.888;15.544;2023-01-19T09:26:29;95143.56;;;1.45;71.27
72636;BME280;60679;48.888;15.544;2023-01-19T09:28:54;95143.59;;;1.52;71.06
72636;BME280;60679;48.888;15.544;2023-01-19T09:31:20;95145.28;;;1.59;70.99
72636;BME280;60679;48.888;15.544;2023-01-19T09:33:45;95150.25;;;1.69;70.71
72636;BME280;60679;48.888;15.544;2023-01-19T09:36:10;95144.97;;;1.82;70.58
72636;BME280;60679;48.888;15.544;2023-01-19T09:38:36;95150.78;;;1.99;70.26
72636;BME280;60679;48.888;15.544;2023-01-19T09:41:02;95150.03;;;2.11;70.33
72636;BME280;60679;48.888;15.544;2023-01-19T09:43:55;95147.66;;;2.36;69.85
72636;BME280;60679;48.888;15.544;2023-01-19T09:46:37;95146.41;;;2.25;69.67
72636;BME280;60679;48.888;15.544;2023-01-19T09:49:27;95135.16;;;2.37;69.64
72636;BME280;60679;48.888;15.544;2023-01-19T09:51:55;95138.91;;;2.62;69.16
72636;BME280;60679;48.888;15.544;2023-01-19T09:54:45;95134.19;;;2.64;69.17
72636;BME280;60679;48.888;15.544;2023-01-19T09:57:13;95144.63;;;2.65;68.74
72636;BME280;60679;48.888;15.544;2023-01-19T09:59:39;95141.56;;;2.68;68.87
72636;BME280;60679;48.888;15.544;2023-01-19T10:02:37;95141.78;;;2.73;68.90
72636;BME280;60679;48.888;15.544;2023-01-19T10:05:28;95135.41;;;2.74;68.95
72636;BME280;60679;48.888;15.544;2023-01-19T10:10:29;95125.56;;;2.68;68.65
72636;BME280;60679;48.888;15.544;2023-01-19T10:20:42;95112.56;;;2.19;69.40
72636;BME280;60679;48.888;15.544;2023-01-19T10:26:08;95108.81;;;2.01;69.42
72636;BME280;60679;48.888;15.544;2023-01-19T10:28:35;95111.88;;;1.91;69.44
72636;BME280;60679;48.888;15.544;2023-01-19T10:31:02;95112.88;;;1.90;69.61
72636;BME280;60679;48.888;15.544;2023-01-19T10:33:31;95118.16;;;1.84;69.57
72636;BME280;60679;48.888;15.544;2023-01-19T10:35:57;95123.91;;;1.81;69.61
72636;BME280;60679;48.888;15.544;2023-01-19T10:38:23;95118.13;;;1.70;69.75
72636;BME280;60679;48.888;15.544;2023-01-19T10:40:56;95119.13;;;1.63;69.88
72636;BME280;60679;48.888;15.544;2023-01-19T10:43:45;95120.06;;;1.55;70.03
72636;BME280;60679;48.888;15.544;2023-01-19T10:46:20;95109.44;;;1.55;69.90
72636;BME280;60679;48.888;15.544;2023-01-19T10:48:48;95109.03;;;1.58;69.98
72636;BME280;60679;48.888;15.544;2023-01-19T10:51:14;95110.91;;;1.58;69.79
72636;BME280;60679;48.888;15.544;2023-01-19T10:53:43;95112.34;;;1.60;69.81
72636;BME280;60679;48.888;15.544;2023-01-19T10:56:22;95107.22;;;1.59;69.87
72636;BME280;60679;48.888;15.544;2023-01-19T10:58:48;95111.97;;;1.63;70.02
72636;BME280;60679;48.888;15.544;2023-01-19T11:01:23;95111.56;;;1.66;70.11
72636;BME280;60679;48.888;15.544;2023-01-19T11:03:49;95109.91;;;1.65;69.81
72636;BME280;60679;48.888;15.544;2023-01-19T11:06:21;95111.56;;;1.66;69.90
72636;BME280;60679;48.888;15.544;2023-01-19T11:08:50;95111.75;;;1.65;69.62
72636;BME280;60679;48.888;15.544;2023-01-19T11:11:20;95112.97;;;1.62;69.69
72636;BME280;60679;48.888;15.544;2023-01-19T11:14:03;95110.09;;;1.57;69.92
72636;BME280;60679;48.888;15.544;2023-01-19T11:16:32;95103.06;;;1.50;69.82
72636;BME280;60679;48.888;15.544;2023-01-19T11:18:59;95109.81;;;1.46;69.82
72636;BME280;60679;48.888;15.544;2023-01-19T11:21:28;95116.53;;;1.42;70.00
72636;BME280;60679;48.888;15.544;2023-01-19T11:24:03;95118.56;;;1.40;70.06
72636;BME280;60679;48.888;15.544;2023-01-19T11:26:39;95117.91;;;1.31;70.04
72636;BME280;60679;48.888;15.544;2023-01-19T11:29:05;95117.47;;;1.28;70.02
72636;BME280;60679;48.888;15.544;2023-01-19T11:31:36;95116.91;;;1.32;70.24
72636;BME280;60679;48.888;15.544;2023-01-19T11:34:22;95109.53;;;1.34;70.03
72636;BME280;60679;48.888;15.544;2023-01-19T11:39:54;95106.75;;;1.14;70.23
72636;BME280;60679;48.888;15.544;2023-01-19T11:42:21;95118.94;;;1.02;70.49
72636;BME280;60679;48.888;15.544;2023-01-19T11:44:57;95115.97;;;0.91;70.77
72636;BME280;60679;48.888;15.544;2023-01-19T11:47:29;95119.16;;;0.80;71.02
72636;BME280;60679;48.888;15.544;2023-01-19T11:50:13;95117.66;;;0.71;71.27
72636;BME280;60679;48.888;15.544;2023-01-19T11:52:58;95122.16;;;0.70;71.21
72636;BME280;60679;48.888;15.544;2023-01-19T11:55:39;95118.91;;;0.75;71.18
72636;BME280;60679;48.888;15.544;2023-01-19T11:58:12;95124.28;;;0.81;70.77
72636;BME280;60679;48.888;15.544;2023-01-19T12:00:41;95118.84;;;0.89;70.58
72636;BME280;60679;48.888;15.544;2023-01-19T12:03:27;95118.69;;;0.97;70.29
72636;BME280;60679;48.888;15.544;2023-01-19T12:06:09;95116.66;;;0.99;70.30
72636;BME280;60679;48.888;15.544;2023-01-19T12:08:41;95121.56;;;0.96;70.18
72636;BME280;60679;48.888;15.544;2023-01-19T12:11:10;95113.97;;;0.93;70.54
72636;BME280;60679;48.888;15.544;2023-01-19T12:13:39;95114.53;;;0.88;70.42
72636;BME280;60679;48.888;15.544;2023-01-19T12:16:21;95125.13;;;0.82;70.71
72636;BME280;60679;48.888;15.544;2023-01-19T12:19:00;95122.53;;;0.67;70.61
72636;BME280;60679;48.888;15.544;2023-01-19T12:21:27;95119.81;;;0.61;70.70
72636;BME280;60679;48.888;15.544;2023-01-19T12:24:21;95123.69;;;0.58;70.80
72636;BME280;60679;48.888;15.544;2023-01-19T12:27:06;95118.63;;;0.63;70.64
72636;BME280;60679;48.888;15.544;2023-01-19T12:29:38;95111.53;;;0.70;70.51
72636;BME280;60679;48.888;15.544;2023-01-19T12:34:42;95118.75;;;0.76;70.46
72636;BME280;60679;48.888;15.544;2023-01-19T12:39:57;95115.50;;;0.81;70.33
72636;BME280;60679;48.888;15.544;2023-01-19T12:42:25;95115.28;;;0.82;70.28
72636;BME280;60679;48.888;15.544;2023-01-19T12:45:04;95119.59;;;0.83;70.24
72636;BME280;60679;48.888;15.544;2023-01-19T12:47:31;95124.28;;;0.81;70.09
72636;BME280;60679;48.888;15.544;2023-01-19T12:49:58;95120.44;;;0.84;70.46
72636;BME280;60679;48.888;15.544;2023-01-19T12:52:36;95119.16;;;0.80;70.46
72636;BME280;60679;48.888;15.544;2023-01-19T12:57:58;95116.03;;;0.70;70.47
72636;BME280;60679;48.888;15.544;2023-01-19T13:05:46;95108.13;;;0.76;70.13
72636;BME280;60679;48.888;15.544;2023-01-19T13:13:44;95113.81;;;0.73;69.95
72636;BME280;60679;48.888;15.544;2023-01-19T13:18:54;95114.09;;;0.85;69.98
72636;BME280;60679;48.888;15.544;2023-01-19T13:21:41;95113.28;;;0.84;69.90
72636;BME280;60679;48.888;15.544;2023-01-19T13:24:12;95117.94;;;0.82;69.90
72636;BME280;60679;48.888;15.544;2023-01-19T13:27:01;95116.31;;;0.81;70.01
72636;BME280;60679;48.888;15.544;2023-01-19T13:31:55;95124.69;;;0.78;70.11
72636;BME280;60679;48.888;15.544;2023-01-19T13:34:28;95125.88;;;0.76;70.17
72636;BME280;60679;48.888;15.544;2023-01-19T13:36:55;95122.59;;;0.74;70.14
72636;BME280;60679;48.888;15.544;2023-01-19T13:39:29;95126.81;;;0.68;70.38
72636;BME280;60679;48.888;15.544;2023-01-19T13:42:01;95132.72;;;0.64;70.33
72636;BME280;60679;48.888;15.544;2023-01-19T13:44:40;95134.31;;;0.58;70.28
72636;BME280;60679;48.888;15.544;2023-01-19T13:47:16;95136.50;;;0.54;70.45
72636;BME280;60679;48.888;15.544;2023-01-19T13:49:49;95134.69;;;0.55;70.55
72636;BME280;60679;48.888;15.544;2023-01-19T13:52:22;95139.53;;;0.51;70.42
72636;BME280;60679;48.888;15.544;2023-01-19T13:54:51;95150.16;;;0.51;70.34